sensor_id;sensor_type;location;lat;lon;timestamp;pressure;altitude;pressure_sealevel;temperature;humidity
78857;BME280;68207;50.078;19.936;2023-02-28T00:01:32;100253.95;;;0.51;58.20
78857;BME280;68207;50.078;19.936;2023-02-28T00:03:57;100256.95;;;0.50;58.41
78857;BME280;68207;50.078;19.936;2023-02-28T00:06:23;100258.16;;;0.50;58.54
78857;BME280;68207;50.078;19.936;2023-02-28T00:08:49;100261.52;;;0.48;58.42
78857;BME280;68207;50.078;19.936;2023-02-28T00:11:16;100263.15;;;0.48;58.58
78857;BME280;68207;50.078;19.936;2023-02-28T00:13:43;100262.31;;;0.47;58.47
78857;BME280;68207;50.078;19.936;2023-02-28T00:16:13;100263.69;;;0.47;58.70
78857;BME280;68207;50.078;19.936;2023-02-28T00:18:40;100264.09;;;0.46;58.51
78857;BME280;68207;50.078;19.936;2023-02-28T00:21:06;100263.40;;;0.46;58.79
78857;BME280;68207;50.078;19.936;2023-02-28T00:23:32;100264.42;;;0.46;58.49
78857;BME280;68207;50.078;19.936;2023-02-28T00:25:58;100263.10;;;0.45;58.82
78857;BME280;68207;50.078;19.936;2023-02-28T00:28:24;100263.85;;;0.43;58.44
78857;BME280;68207;50.078;19.936;2023-02-28T00:30:49;100265.09;;;0.43;58.00
78857;BME280;68207;50.078;19.936;2023-02-28T00:33:15;100263.77;;;0.41;58.00
78857;BME280;68207;50.078;19.936;2023-02-28T00:35:40;100264.34;;;0.40;58.02
78857;BME280;68207;50.078;19.936;2023-02-28T00:38:06;100264.92;;;0.39;57.89
78857;BME280;68207;50.078;19.936;2023-02-28T00:40:31;100263.45;;;0.38;57.76
78857;BME280;68207;50.078;19.936;2023-02-28T00:42:57;100260.80;;;0.35;57.38
78857;BME280;68207;50.078;19.936;2023-02-28T00:45:22;100265.23;;;0.33;57.57
78857;BME280;68207;50.078;19.936;2023-02-28T00:47:47;100259.55;;;0.32;57.44
78857;BME280;68207;50.078;19.936;2023-02-28T00:50:17;100258.94;;;0.31;57.62
78857;BME280;68207;50.078;19.936;2023-02-28T00:52:42;100261.20;;;0.31;57.66
78857;BME280;68207;50.078;19.936;2023-02-28T00:55:08;100261.43;;;0.29;57.38
78857;BME280;68207;50.078;19.936;2023-02-28T00:57:33;100261.55;;;0.27;56.91
78857;BME280;68207;50.078;19.936;2023-02-28T00:59:59;100260.40;;;0.26;56.87
78857;BME280;68207;50.078;19.936;2023-02-28T01:02:24;100256.18;;;0.23;56.68
78857;BME280;68207;50.078;19.936;2023-02-28T01:04:49;100257.36;;;0.20;56.45
78857;BME280;68207;50.078;19.936;2023-02-28T01:07:15;100256.80;;;0.18;56.58
78857;BME280;68207;50.078;19.936;2023-02-28T01:09:41;100261.06;;;0.16;56.72
78857;BME280;68207;50.078;19.936;2023-02-28T01:12:07;100266.50;;;0.15;56.67
78857;BME280;68207;50.078;19.936;2023-02-28T01:14:33;100264.23;;;0.12;56.72
78857;BME280;68207;50.078;19.936;2023-02-28T01:16:59;100262.52;;;0.07;56.47
78857;BME280;68207;50.078;19.936;2023-02-28T01:19:24;100258.16;;;0.04;56.49
78857;BME280;68207;50.078;19.936;2023-02-28T01:21:50;100258.42;;;0.02;56.46
78857;BME280;68207;50.078;19.936;2023-02-28T01:24:15;100261.67;;;-0.00;56.77
78857;BME280;68207;50.078;19.936;2023-02-28T01:26:41;100258.14;;;-0.03;56.76
78857;BME280;68207;50.078;19.936;2023-02-28T01:29:06;100263.33;;;-0.06;56.67
78857;BME280;68207;50.078;19.936;2023-02-28T01:31:31;100260.45;;;-0.08;56.76
78857;BME280;68207;50.078;19.936;2023-02-28T01:34:00;100262.45;;;-0.09;56.89
78857;BME280;68207;50.078;19.936;2023-02-28T01:36:26;100264.27;;;-0.11;56.78
78857;BME280;68207;50.078;19.936;2023-02-28T01:38:51;100264.00;;;-0.13;57.01
78857;BME280;68207;50.078;19.936;2023-02-28T01:46:11;100264.11;;;-0.18;57.16
78857;BME280;68207;50.078;19.936;2023-02-28T01:48:44;100268.37;;;-0.20;57.33
78857;BME280;68207;50.078;19.936;2023-02-28T01:51:16;100268.43;;;-0.22;57.52
78857;BME280;68207;50.078;19.936;2023-02-28T01:53:46;100266.23;;;-0.23;57.81
78857;BME280;68207;50.078;19.936;2023-02-28T01:56:17;100267.12;;;-0.23;57.67
78857;BME280;68207;50.078;19.936;2023-02-28T01:58:46;100267.17;;;-0.24;58.20
78857;BME280;68207;50.078;19.936;2023-02-28T02:01:12;100266.81;;;-0.24;58.19
78857;BME280;68207;50.078;19.936;2023-02-28T02:03:49;100266.33;;;-0.25;58.29
78857;BME280;68207;50.078;19.936;2023-02-28T02:06:27;100258.23;;;-0.26;58.26
78857;BME280;68207;50.078;19.936;2023-02-28T02:08:54;100258.92;;;-0.26;58.25
78857;BME280;68207;50.078;19.936;2023-02-28T02:11:22;100255.14;;;-0.27;58.46
78857;BME280;68207;50.078;19.936;2023-02-28T02:33:32;100241.20;;;-0.49;59.85
78857;BME280;68207;50.078;19.936;2023-02-28T02:36:10;100241.02;;;-0.52;60.18
78857;BME280;68207;50.078;19.936;2023-02-28T02:41:33;100238.02;;;-0.58;60.53
78857;BME280;68207;50.078;19.936;2023-02-28T02:44:13;100241.11;;;-0.61;60.90
78857;BME280;68207;50.078;19.936;2023-02-28T02:46:44;100242.13;;;-0.64;60.99
78857;BME280;68207;50.078;19.936;2023-02-28T02:49:22;100238.85;;;-0.68;61.06
78857;BME280;68207;50.078;19.936;2023-02-28T02:51:51;100236.40;;;-0.72;61.24
78857;BME280;68207;50.078;19.936;2023-02-28T02:54:21;100235.02;;;-0.76;61.58
78857;BME280;68207;50.078;19.936;2023-02-28T02:56:49;100234.29;;;-0.78;61.47
78857;BME280;68207;50.078;19.936;2023-02-28T02:59:18;100231.99;;;-0.81;61.71
78857;BME280;68207;50.078;19.936;2023-02-28T03:01:49;100232.84;;;-0.85;62.21
78857;BME280;68207;50.078;19.936;2023-02-28T03:04:20;100230.89;;;-0.88;62.26
78857;BME280;68207;50.078;19.936;2023-02-28T03:06:47;100223.44;;;-0.88;62.41
78857;BME280;68207;50.078;19.936;2023-02-28T03:09:12;100226.41;;;-0.85;62.64
78857;BME280;68207;50.078;19.936;2023-02-28T03:11:39;100228.58;;;-0.83;62.66
78857;BME280;68207;50.078;19.936;2023-02-28T03:14:40;100232.31;;;-0.81;62.68
78857;BME280;68207;50.078;19.936;2023-02-28T03:19:53;100237.13;;;-0.80;62.85
78857;BME280;68207;50.078;19.936;2023-02-28T03:25:52;100239.27;;;-0.85;63.08
78857;BME280;68207;50.078;19.936;2023-02-28T03:36:15;100248.98;;;-0.97;63.18
78857;BME280;68207;50.078;19.936;2023-02-28T03:38:49;100246.88;;;-1.00;63.29
78857;BME280;68207;50.078;19.936;2023-02-28T03:41:23;100250.81;;;-1.03;63.48
78857;BME280;68207;50.078;19.936;2023-02-28T03:43:57;100252.34;;;-1.06;63.66
78857;BME280;68207;50.078;19.936;2023-02-28T03:46:24;100252.11;;;-1.09;63.63
78857;BME280;68207;50.078;19.936;2023-02-28T03:48:56;100258.02;;;-1.13;63.76
78857;BME280;68207;50.078;19.936;2023-02-28T03:51:24;100259.87;;;-1.16;63.76
78857;BME280;68207;50.078;19.936;2023-02-28T03:53:54;100261.77;;;-1.19;64.05
78857;BME280;68207;50.078;19.936;2023-02-28T03:56:29;100262.38;;;-1.21;64.22
78857;BME280;68207;50.078;19.936;2023-02-28T03:59:04;100260.23;;;-1.24;64.48
78857;BME280;68207;50.078;19.936;2023-02-28T04:01:35;100264.42;;;-1.28;64.47
78857;BME280;68207;50.078;19.936;2023-02-28T04:04:03;100263.88;;;-1.33;64.63
78857;BME280;68207;50.078;19.936;2023-02-28T04:06:31;100263.50;;;-1.36;64.55
78857;BME280;68207;50.078;19.936;2023-02-28T04:08:57;100266.52;;;-1.37;64.76
78857;BME280;68207;50.078;19.936;2023-02-28T04:11:30;100271.10;;;-1.35;64.96
78857;BME280;68207;50.078;19.936;2023-02-28T04:14:00;100268.08;;;-1.29;65.06
78857;BME280;68207;50.078;19.936;2023-02-28T04:16:26;100271.52;;;-1.24;65.08
78857;BME280;68207;50.078;19.936;2023-02-28T04:18:51;100272.92;;;-1.21;65.28
78857;BME280;68207;50.078;19.936;2023-02-28T04:21:17;100273.44;;;-1.20;65.27
78857;BME280;68207;50.078;19.936;2023-02-28T04:23:46;100277.99;;;-1.22;65.23
78857;BME280;68207;50.078;19.936;2023-02-28T04:26:11;100276.84;;;-1.23;65.28
78857;BME280;68207;50.078;19.936;2023-02-28T04:28:37;100281.27;;;-1.25;65.04
78857;BME280;68207;50.078;19.936;2023-02-28T04:31:04;100274.83;;;-1.28;65.22
78857;BME280;68207;50.078;19.936;2023-02-28T04:33:31;100281.83;;;-1.30;65.35
78857;BME280;68207;50.078;19.936;2023-02-28T04:36:02;100282.98;;;-1.34;65.33
78857;BME280;68207;50.078;19.936;2023-02-28T04:38:35;100282.84;;;-1.38;65.56
78857;BME280;68207;50.078;19.936;2023-02-28T04:41:01;100288.84;;;-1.40;65.57
78857;BME280;68207;50.078;19.936;2023-02-28T04:43:27;100287.80;;;-1.45;65.61
78857;BME280;68207;50.078;19.936;2023-02-28T04:45:54;100286.54;;;-1.47;65.86
78857;BME280;68207;50.078;19.936;2023-02-28T04:48:23;100287.70;;;-1.50;65.91
78857;BME280;68207;50.078;19.936;2023-02-28T04:50:49;100288.52;;;-1.53;65.98
78857;BME280;68207;50.078;19.936;2023-02-28T04:53:14;100288.44;;;-1.55;66.08
78857;BME280;68207;50.078;19.936;2023-02-28T04:55:39;100289.92;;;-1.58;66.26
78857;BME280;68207;50.078;19.936;2023-02-28T04:58:05;100292.78;;;-1.60;66.31
78857;BME280;68207;50.078;19.936;2023-02-28T05:00:31;100293.02;;;-1.61;66.45
78857;BME280;68207;50.078;19.936;2023-02-28T05:02:56;100295.16;;;-1.59;66.53
78857;BME280;68207;50.078;19.936;2023-02-28T05:05:21;100299.09;;;-1.53;66.38
78857;BME280;68207;50.078;19.936;2023-02-28T05:07:47;100298.98;;;-1.50;66.54
78857;BME280;68207;50.078;19.936;2023-02-28T05:10:12;100299.38;;;-1.48;66.60
78857;BME280;68207;50.078;19.936;2023-02-28T05:12:38;100302.56;;;-1.45;66.64
78857;BME280;68207;50.078;19.936;2023-02-28T05:15:04;100308.05;;;-1.44;66.70
78857;BME280;68207;50.078;19.936;2023-02-28T05:17:30;100306.52;;;-1.44;66.48
78857;BME280;68207;50.078;19.936;2023-02-28T05:19:56;100304.94;;;-1.48;66.62
78857;BME280;68207;50.078;19.936;2023-02-28T05:22:21;100307.82;;;-1.51;66.43
78857;BME280;68207;50.078;19.936;2023-02-28T05:24:47;100308.11;;;-1.53;66.76
78857;BME280;68207;50.078;19.936;2023-02-28T05:27:12;100306.83;;;-1.56;66.78
78857;BME280;68207;50.078;19.936;2023-02-28T05:29:37;100309.21;;;-1.59;66.93
78857;BME280;68207;50.078;19.936;2023-02-28T05:32:11;100307.23;;;-1.61;67.09
78857;BME280;68207;50.078;19.936;2023-02-28T05:34:38;100310.76;;;-1.63;67.07
78857;BME280;68207;50.078;19.936;2023-02-28T05:37:04;100316.54;;;-1.60;67.28
78857;BME280;68207;50.078;19.936;2023-02-28T05:39:29;100312.39;;;-1.57;67.19
78857;BME280;68207;50.078;19.936;2023-02-28T05:41:54;100317.35;;;-1.46;67.33
78857;BME280;68207;50.078;19.936;2023-02-28T05:44:20;100320.10;;;-1.38;67.31
78857;BME280;68207;50.078;19.936;2023-02-28T05:46:45;100324.97;;;-1.29;67.29
78857;BME280;68207;50.078;19.936;2023-02-28T05:49:10;100331.85;;;-1.20;67.05
78857;BME280;68207;50.078;19.936;2023-02-28T05:51:36;100330.63;;;-1.08;66.95
78857;BME280;68207;50.078;19.936;2023-02-28T05:54:04;100338.34;;;-0.98;66.95
78857;BME280;68207;50.078;19.936;2023-02-28T05:56:30;100343.45;;;-0.91;66.74
78857;BME280;68207;50.078;19.936;2023-02-28T05:58:55;100343.98;;;-0.83;66.56
78857;BME280;68207;50.078;19.936;2023-02-28T06:01:23;100345.98;;;-0.77;66.71
78857;BME280;68207;50.078;19.936;2023-02-28T06:03:48;100348.13;;;-0.71;66.71
78857;BME280;68207;50.078;19.936;2023-02-28T06:06:14;100350.48;;;-0.66;66.53
78857;BME280;68207;50.078;19.936;2023-02-28T06:08:39;100350.78;;;-0.61;66.54
78857;BME280;68207;50.078;19.936;2023-02-28T06:11:05;100350.09;;;-0.57;66.07
78857;BME280;68207;50.078;19.936;2023-02-28T06:13:31;100349.51;;;-0.52;66.15
78857;BME280;68207;50.078;19.936;2023-02-28T06:16:00;100349.56;;;-0.49;66.01
78857;BME280;68207;50.078;19.936;2023-02-28T06:18:26;100346.80;;;-0.46;65.72
78857;BME280;68207;50.078;19.936;2023-02-28T06:20:54;100349.66;;;-0.43;65.64
78857;BME280;68207;50.078;19.936;2023-02-28T06:23:20;100352.98;;;-0.40;65.50
78857;BME280;68207;50.078;19.936;2023-02-28T06:25:47;100358.08;;;-0.37;65.49
78857;BME280;68207;50.078;19.936;2023-02-28T06:28:21;100363.70;;;-0.35;65.33
78857;BME280;68207;50.078;19.936;2023-02-28T06:30:46;100358.91;;;-0.33;65.36
78857;BME280;68207;50.078;19.936;2023-02-28T06:33:14;100355.44;;;-0.29;65.23
78857;BME280;68207;50.078;19.936;2023-02-28T06:35:40;100356.84;;;-0.26;65.36
78857;BME280;68207;50.078;19.936;2023-02-28T06:38:08;100362.94;;;-0.22;65.06
78857;BME280;68207;50.078;19.936;2023-02-28T06:40:33;100368.51;;;-0.19;65.22
78857;BME280;68207;50.078;19.936;2023-02-28T06:43:00;100367.51;;;-0.16;64.98
78857;BME280;68207;50.078;19.936;2023-02-28T06:45:26;100366.02;;;-0.14;64.91
78857;BME280;68207;50.078;19.936;2023-02-28T06:47:51;100367.45;;;-0.11;64.63
78857;BME280;68207;50.078;19.936;2023-02-28T06:50:17;100368.10;;;-0.10;64.63
78857;BME280;68207;50.078;19.936;2023-02-28T06:52:44;100370.58;;;-0.08;64.66
78857;BME280;68207;50.078;19.936;2023-02-28T06:55:09;100374.84;;;-0.06;64.74
78857;BME280;68207;50.078;19.936;2023-02-28T06:57:36;100379.73;;;-0.02;64.56
78857;BME280;68207;50.078;19.936;2023-02-28T07:00:05;100375.30;;;-0.00;64.87
78857;BME280;68207;50.078;19.936;2023-02-28T07:02:32;100375.73;;;0.01;64.67
78857;BME280;68207;50.078;19.936;2023-02-28T07:04:58;100374.55;;;0.01;64.81
78857;BME280;68207;50.078;19.936;2023-02-28T07:07:23;100375.38;;;0.01;64.56
78857;BME280;68207;50.078;19.936;2023-02-28T07:09:48;100381.99;;;0.01;64.68
78857;BME280;68207;50.078;19.936;2023-02-28T07:12:14;100385.75;;;0.03;64.53
78857;BME280;68207;50.078;19.936;2023-02-28T07:14:39;100387.94;;;0.04;64.48
78857;BME280;68207;50.078;19.936;2023-02-28T07:17:07;100386.48;;;0.05;64.35
78857;BME280;68207;50.078;19.936;2023-02-28T07:19:32;100390.72;;;0.08;64.24
78857;BME280;68207;50.078;19.936;2023-02-28T07:21:57;100390.87;;;0.12;64.58
78857;BME280;68207;50.078;19.936;2023-02-28T07:24:23;100392.71;;;0.17;64.64
78857;BME280;68207;50.078;19.936;2023-02-28T07:26:50;100392.18;;;0.21;64.53
78857;BME280;68207;50.078;19.936;2023-02-28T07:29:16;100393.91;;;0.25;64.69
78857;BME280;68207;50.078;19.936;2023-02-28T07:31:41;100393.38;;;0.29;64.27
78857;BME280;68207;50.078;19.936;2023-02-28T07:34:06;100396.39;;;0.31;64.08
78857;BME280;68207;50.078;19.936;2023-02-28T07:36:32;100395.84;;;0.35;64.06
78857;BME280;68207;50.078;19.936;2023-02-28T07:38:58;100399.50;;;0.39;63.76
78857;BME280;68207;50.078;19.936;2023-02-28T07:41:24;100400.74;;;0.42;63.73
78857;BME280;68207;50.078;19.936;2023-02-28T07:43:53;100399.91;;;0.45;63.17
78857;BME280;68207;50.078;19.936;2023-02-28T07:46:20;100396.96;;;0.49;63.27
78857;BME280;68207;50.078;19.936;2023-02-28T07:48:46;100403.38;;;0.53;62.83
78857;BME280;68207;50.078;19.936;2023-02-28T07:51:11;100400.30;;;0.55;62.27
78857;BME280;68207;50.078;19.936;2023-02-28T07:53:37;100398.55;;;0.59;61.79
78857;BME280;68207;50.078;19.936;2023-02-28T07:56:02;100395.05;;;0.66;61.80
78857;BME280;68207;50.078;19.936;2023-02-28T07:58:29;100396.48;;;0.76;61.80
78857;BME280;68207;50.078;19.936;2023-02-28T08:00:55;100395.31;;;0.86;61.20
78857;BME280;68207;50.078;19.936;2023-02-28T08:03:22;100396.39;;;0.96;60.96
78857;BME280;68207;50.078;19.936;2023-02-28T08:05:48;100397.24;;;1.06;60.57
78857;BME280;68207;50.078;19.936;2023-02-28T08:08:15;100398.08;;;1.13;60.46
78857;BME280;68207;50.078;19.936;2023-02-28T08:10:41;100396.17;;;1.20;60.16
78857;BME280;68207;50.078;19.936;2023-02-28T08:13:07;100398.89;;;1.28;59.79
78857;BME280;68207;50.078;19.936;2023-02-28T08:15:32;100400.35;;;1.37;59.54
78857;BME280;68207;50.078;19.936;2023-02-28T08:17:58;100400.30;;;1.45;59.51
78857;BME280;68207;50.078;19.936;2023-02-28T08:20:25;100395.92;;;1.52;58.96
78857;BME280;68207;50.078;19.936;2023-02-28T08:22:50;100394.23;;;1.58;58.63
78857;BME280;68207;50.078;19.936;2023-02-28T08:25:16;100394.02;;;1.62;58.69
78857;BME280;68207;50.078;19.936;2023-02-28T08:27:41;100396.29;;;1.65;58.20
78857;BME280;68207;50.078;19.936;2023-02-28T08:30:09;100398.98;;;1.70;57.95
78857;BME280;68207;50.078;19.936;2023-02-28T08:32:35;100400.91;;;1.76;57.91
78857;BME280;68207;50.078;19.936;2023-02-28T08:35:01;100404.02;;;1.84;57.56
78857;BME280;68207;50.078;19.936;2023-02-28T08:37:27;100400.58;;;1.93;57.52
78857;BME280;68207;50.078;19.936;2023-02-28T08:39:53;100401.45;;;1.99;56.65
78857;BME280;68207;50.078;19.936;2023-02-28T08:42:18;100396.73;;;2.05;56.04
78857;BME280;68207;50.078;19.936;2023-02-28T08:44:43;100400.49;;;2.13;55.71
78857;BME280;68207;50.078;19.936;2023-02-28T08:47:09;100402.82;;;2.22;55.18
78857;BME280;68207;50.078;19.936;2023-02-28T08:49:34;100401.52;;;2.33;54.93
78857;BME280;68207;50.078;19.936;2023-02-28T08:51:59;100397.58;;;2.44;54.92
78857;BME280;68207;50.078;19.936;2023-02-28T08:54:25;100401.33;;;2.55;54.52
78857;BME280;68207;50.078;19.936;2023-02-28T08:56:50;100399.95;;;2.67;54.06
78857;BME280;68207;50.078;19.936;2023-02-28T08:59:16;100402.35;;;2.79;53.52
78857;BME280;68207;50.078;19.936;2023-02-28T09:01:41;100399.73;;;2.97;52.94
78857;BME280;68207;50.078;19.936;2023-02-28T09:04:08;100401.48;;;3.21;52.79
78857;BME280;68207;50.078;19.936;2023-02-28T09:06:34;100397.29;;;3.50;52.32
78857;BME280;68207;50.078;19.936;2023-02-28T09:09:01;100390.96;;;3.85;52.00
78857;BME280;68207;50.078;19.936;2023-02-28T09:11:27;100391.37;;;4.23;51.43
78857;BME280;68207;50.078;19.936;2023-02-28T09:13:53;100395.56;;;4.64;50.40
78857;BME280;68207;50.078;19.936;2023-02-28T09:16:20;100393.90;;;5.05;50.04
78857;BME280;68207;50.078;19.936;2023-02-28T09:18:46;100391.95;;;5.44;48.51
78857;BME280;68207;50.078;19.936;2023-02-28T09:21:14;100395.21;;;5.70;47.19
78857;BME280;68207;50.078;19.936;2023-02-28T09:23:42;100394.83;;;6.01;47.26
78857;BME280;68207;50.078;19.936;2023-02-28T09:26:15;100394.66;;;6.36;46.83
78857;BME280;68207;50.078;19.936;2023-02-28T09:28:41;100392.45;;;6.66;45.13
78857;BME280;68207;50.078;19.936;2023-02-28T09:31:12;100390.88;;;6.92;44.89
78857;BME280;68207;50.078;19.936;2023-02-28T09:33:37;100398.59;;;7.25;44.19
78857;BME280;68207;50.078;19.936;2023-02-28T09:36:03;100396.96;;;7.50;43.75
78857;BME280;68207;50.078;19.936;2023-02-28T09:38:29;100391.61;;;7.72;43.47
78857;BME280;68207;50.078;19.936;2023-02-28T09:41:00;100391.74;;;7.95;43.51
78857;BME280;68207;50.078;19.936;2023-02-28T09:43:31;100386.39;;;8.27;42.95
78857;BME280;68207;50.078;19.936;2023-02-28T09:46:11;100388.41;;;8.54;42.51
78857;BME280;68207;50.078;19.936;2023-02-28T09:48:44;100386.79;;;8.83;41.90
78857;BME280;68207;50.078;19.936;2023-02-28T09:51:23;100390.49;;;9.04;40.96
78857;BME280;68207;50.078;19.936;2023-02-28T09:53:52;100389.73;;;9.21;40.65
78857;BME280;68207;50.078;19.936;2023-02-28T09:56:42;100394.10;;;9.39;40.42
78857;BME280;68207;50.078;19.936;2023-02-28T09:59:15;100396.45;;;9.62;39.91
78857;BME280;68207;50.078;19.936;2023-02-28T10:06:49;100395.51;;;10.08;38.34
78857;BME280;68207;50.078;19.936;2023-02-28T10:11:51;100396.92;;;10.34;38.15
78857;BME280;68207;50.078;19.936;2023-02-28T10:14:22;100390.55;;;10.48;37.62
78857;BME280;68207;50.078;19.936;2023-02-28T10:17:09;100395.19;;;10.59;37.30
78857;BME280;68207;50.078;19.936;2023-02-28T10:19:44;100392.81;;;10.74;36.94
78857;BME280;68207;50.078;19.936;2023-02-28T10:22:14;100388.24;;;10.81;36.71
78857;BME280;68207;50.078;19.936;2023-02-28T10:24:45;100381.05;;;10.90;36.58
78857;BME280;68207;50.078;19.936;2023-02-28T10:29:44;100378.34;;;11.05;36.27
78857;BME280;68207;50.078;19.936;2023-02-28T10:32:14;100377.17;;;11.16;36.28
78857;BME280;68207;50.078;19.936;2023-02-28T10:34:40;100377.74;;;11.30;36.07
78857;BME280;68207;50.078;19.936;2023-02-28T10:37:06;100373.75;;;11.42;35.76
78857;BME280;68207;50.078;19.936;2023-02-28T10:39:41;100372.11;;;11.60;35.77
78857;BME280;68207;50.078;19.936;2023-02-28T10:42:25;100368.67;;;11.81;35.34
78857;BME280;68207;50.078;19.936;2023-02-28T10:45:14;100362.48;;;12.05;35.31
78857;BME280;68207;50.078;19.936;2023-02-28T10:48:27;100362.59;;;12.28;35.04
78857;BME280;68207;50.078;19.936;2023-02-28T10:53:27;100358.66;;;12.64;34.37
78857;BME280;68207;50.078;19.936;2023-02-28T10:58:40;100351.88;;;13.23;34.10
78857;BME280;68207;50.078;19.936;2023-02-28T11:01:15;100347.59;;;13.48;33.43
78857;BME280;68207;50.078;19.936;2023-02-28T11:03:40;100347.73;;;13.63;32.90
78857;BME280;68207;50.078;19.936;2023-02-28T11:06:08;100347.10;;;13.75;32.45
78857;BME280;68207;50.078;19.936;2023-02-28T11:08:48;100335.61;;;13.83;32.28
78857;BME280;68207;50.078;19.936;2023-02-28T11:11:14;100333.70;;;13.92;32.14
78857;BME280;68207;50.078;19.936;2023-02-28T11:13:43;100334.63;;;14.11;32.35
78857;BME280;68207;50.078;19.936;2023-02-28T11:16:11;100334.56;;;14.28;31.78
78857;BME280;68207;50.078;19.936;2023-02-28T11:21:21;100329.30;;;14.49;30.84
78857;BME280;68207;50.078;19.936;2023-02-28T11:23:49;100320.69;;;14.52;30.77
78857;BME280;68207;50.078;19.936;2023-02-28T11:26:16;100320.95;;;14.65;31.05
78857;BME280;68207;50.078;19.936;2023-02-28T11:31:40;100318.84;;;14.95;30.53
78857;BME280;68207;50.078;19.936;2023-02-28T11:34:23;100313.89;;;15.04;29.98
78857;BME280;68207;50.078;19.936;2023-02-28T11:36:50;100314.52;;;15.13;29.93
78857;BME280;68207;50.078;19.936;2023-02-28T11:39:16;100304.10;;;15.18;29.65
78857;BME280;68207;50.078;19.936;2023-02-28T11:47:39;100293.54;;;15.30;29.38
78857;BME280;68207;50.078;19.936;2023-02-28T11:53:04;100297.13;;;15.38;29.53
78857;BME280;68207;50.078;19.936;2023-02-28T11:55:39;100297.28;;;15.46;29.24
78857;BME280;68207;50.078;19.936;2023-02-28T11:58:28;100296.39;;;15.49;29.01
78857;BME280;68207;50.078;19.936;2023-02-28T12:01:07;100295.76;;;15.42;28.92
78857;BME280;68207;50.078;19.936;2023-02-28T12:04:04;100290.46;;;15.48;29.06
78857;BME280;68207;50.078;19.936;2023-02-28T12:06:43;100287.27;;;15.56;28.47
78857;BME280;68207;50.078;19.936;2023-02-28T12:09:35;100289.44;;;15.56;28.45
78857;BME280;68207;50.078;19.936;2023-02-28T12:12:33;100285.52;;;15.59;28.43
78857;BME280;68207;50.078;19.936;2023-02-28T12:17:42;100279.65;;;15.78;28.55
78857;BME280;68207;50.078;19.936;2023-02-28T12:20:27;100284.02;;;15.96;28.40
78857;BME280;68207;50.078;19.936;2023-02-28T12:26:27;100288.04;;;16.16;28.00
78857;BME280;68207;50.078;19.936;2023-02-28T12:29:25;100286.78;;;16.26;27.81
78857;BME280;68207;50.078;19.936;2023-02-28T12:32:01;100288.67;;;16.33;27.82
78857;BME280;68207;50.078;19.936;2023-02-28T12:37:37;100290.20;;;16.59;27.44
78857;BME280;68207;50.078;19.936;2023-02-28T12:40:11;100291.69;;;16.68;27.62
78857;BME280;68207;50.078;19.936;2023-02-28T12:42:40;100292.59;;;16.73;27.50
78857;BME280;68207;50.078;19.936;2023-02-28T12:47:38;100291.30;;;16.93;27.21
78857;BME280;68207;50.078;19.936;2023-02-28T12:50:07;100288.81;;;17.04;26.94
78857;BME280;68207;50.078;19.936;2023-02-28T12:52:49;100287.16;;;17.09;26.58
78857;BME280;68207;50.078;19.936;2023-02-28T12:55:40;100279.65;;;17.14;26.52
78857;BME280;68207;50.078;19.936;2023-02-28T12:58:17;100277.56;;;17.15;26.51
78857;BME280;68207;50.078;19.936;2023-02-28T13:09:30;100268.25;;;17.04;26.69
78857;BME280;68207;50.078;19.936;2023-02-28T13:11:56;100266.46;;;17.17;26.33
78857;BME280;68207;50.078;19.936;2023-02-28T13:14:38;100269.91;;;17.13;26.02
78857;BME280;68207;50.078;19.936;2023-02-28T13:19:36;100274.90;;;17.03;26.03
78857;BME280;68207;50.078;19.936;2023-02-28T13:22:02;100269.92;;;16.93;26.01
78857;BME280;68207;50.078;19.936;2023-02-28T13:24:49;100269.04;;;16.76;25.84
78857;BME280;68207;50.078;19.936;2023-02-28T13:27:32;100269.10;;;16.63;26.33
78857;BME280;68207;50.078;19.936;2023-02-28T13:29:58;100262.63;;;16.59;26.15
78857;BME280;68207;50.078;19.936;2023-02-28T13:32:34;100262.84;;;16.51;26.47
78857;BME280;68207;50.078;19.936;2023-02-28T13:37:35;100256.45;;;16.49;26.52
78857;BME280;68207;50.078;19.936;2023-02-28T13:42:36;100250.82;;;16.63;26.64
78857;BME280;68207;50.078;19.936;2023-02-28T13:47:39;100245.33;;;16.74;26.54
78857;BME280;68207;50.078;19.936;2023-02-28T13:50:27;100246.25;;;16.86;26.52
78857;BME280;68207;50.078;19.936;2023-02-28T13:55:43;100236.77;;;16.95;26.64
78857;BME280;68207;50.078;19.936;2023-02-28T14:01:36;100229.77;;;16.77;26.30
78857;BME280;68207;50.078;19.936;2023-02-28T14:04:30;100230.95;;;16.65;26.52
78857;BME280;68207;50.078;19.936;2023-02-28T14:07:04;100228.63;;;16.64;26.83
78857;BME280;68207;50.078;19.936;2023-02-28T14:09:35;100227.27;;;16.63;26.79
78857;BME280;68207;50.078;19.936;2023-02-28T14:18:30;100213.45;;;16.41;26.29
78857;BME280;68207;50.078;19.936;2023-02-28T14:21:20;100213.77;;;16.31;26.58
78857;BME280;68207;50.078;19.936;2023-02-28T14:26:57;100214.14;;;16.14;26.78
78857;BME280;68207;50.078;19.936;2023-02-28T14:35:09;100214.52;;;15.81;27.37
78857;BME280;68207;50.078;19.936;2023-02-28T14:37:39;100210.11;;;15.76;27.34
78857;BME280;68207;50.078;19.936;2023-02-28T14:40:19;100210.83;;;15.72;27.60
78857;BME280;68207;50.078;19.936;2023-02-28T14:42:49;100208.98;;;15.60;27.53
78857;BME280;68207;50.078;19.936;2023-02-28T14:45:20;100207.23;;;15.47;27.52
78857;BME280;68207;50.078;19.936;2023-02-28T14:47:46;100211.14;;;15.32;27.40
78857;BME280;68207;50.078;19.936;2023-02-28T14:50:22;100216.63;;;15.17;27.64
78857;BME280;68207;50.078;19.936;2023-02-28T14:52:51;100218.23;;;15.00;27.81
78857;BME280;68207;50.078;19.936;2023-02-28T14:55:18;100221.05;;;14.87;28.15
78857;BME280;68207;50.078;19.936;2023-02-28T14:57:56;100219.52;;;14.82;28.21